createdAt,value
2019-05-17T00:00:44.032Z,69.30
2019-05-17T00:05:47.431Z,69.59
2019-05-17T00:10:50.898Z,69.70
2019-05-17T00:15:56.523Z,69.78
2019-05-17T00:20:59.444Z,69.84
2019-05-17T00:26:03.605Z,69.77
2019-05-17T00:31:07.002Z,69.98
2019-05-17T00:36:10.702Z,70.13
2019-05-17T00:41:14.103Z,70.26
2019-05-17T00:46:17.510Z,69.96
2019-05-17T00:51:20.906Z,69.82
2019-05-17T00:56:26.483Z,70.44
2019-05-17T01:01:29.447Z,70.88
2019-05-17T01:06:32.912Z,71.20
2019-05-17T01:11:36.683Z,71.13
2019-05-17T01:16:40.199Z,71.25
2019-05-17T01:21:43.598Z,71.37
2019-05-17T01:26:47.082Z,71.56
2019-05-17T01:31:50.468Z,71.67
2019-05-17T01:36:53.958Z,71.83
2019-05-17T01:41:57.654Z,72.12
2019-05-17T01:47:01.049Z,72.31
2019-05-17T01:52:04.456Z,72.58
2019-05-17T01:57:07.919Z,72.90
2019-05-17T02:02:12.965Z,73.16
2019-05-17T02:07:17.303Z,73.27
2019-05-17T02:12:20.826Z,73.40
2019-05-17T02:17:26.465Z,73.54
2019-05-17T02:22:29.351Z,73.99
2019-05-17T02:27:39.867Z,74.24
2019-05-17T02:32:42.749Z,74.35
2019-05-17T02:37:45.369Z,74.42
2019-05-17T02:42:48.771Z,74.75
2019-05-17T02:47:53.693Z,75.07
2019-05-17T02:52:57.249Z,74.99
2019-05-17T02:58:03.131Z,75.03
2019-05-17T03:03:05.787Z,75.00
2019-05-17T03:08:12.141Z,74.84
2019-05-17T03:13:17.912Z,74.75
2019-05-17T03:18:22.623Z,74.76
2019-05-17T03:23:24.669Z,74.61
2019-05-17T03:28:28.342Z,74.55
2019-05-17T03:33:36.075Z,74.57
2019-05-17T03:38:38.900Z,74.66
2019-05-17T03:43:44.198Z,74.91
2019-05-17T03:48:47.423Z,75.01
2019-05-17T03:53:53.121Z,74.87
2019-05-17T03:58:55.972Z,74.83
2019-05-17T04:04:02.561Z,75.03
2019-05-17T04:09:07.229Z,75.07
2019-05-17T04:14:13.668Z,75.58
2019-05-17T04:19:15.980Z,75.66
2019-05-17T04:24:19.383Z,75.59
2019-05-17T04:29:22.938Z,75.61
2019-05-17T04:34:26.260Z,76.07
2019-05-17T04:39:32.509Z,76.23
2019-05-17T04:44:34.788Z,76.21
2019-05-17T04:49:38.175Z,76.16
2019-05-17T04:54:42.479Z,76.28
2019-05-17T04:59:46.059Z,76.40
2019-05-17T05:04:49.735Z,76.24
2019-05-17T05:09:53.307Z,75.97
2019-05-17T05:14:56.708Z,75.97
2019-05-17T05:20:02.803Z,75.99
2019-05-17T05:25:06.436Z,75.92
2019-05-17T05:30:12.096Z,75.84
2019-05-17T05:35:15.682Z,75.94
2019-05-17T05:40:21.292Z,76.06
2019-05-17T05:45:24.270Z,76.66
2019-05-17T05:50:27.933Z,76.71
2019-05-17T05:55:32.144Z,76.51
2019-05-17T06:00:35.711Z,76.39
2019-05-17T06:05:39.144Z,76.46
2019-05-17T06:10:43.034Z,76.58
2019-05-17T06:15:46.573Z,76.46
2019-05-17T06:20:52.289Z,76.21
2019-05-17T06:25:55.149Z,76.09
2019-05-17T06:30:58.550Z,75.93
2019-05-17T06:36:02.780Z,75.56
2019-05-17T06:41:06.687Z,75.36
2019-05-17T06:46:12.228Z,75.15
2019-05-17T06:51:15.292Z,74.97
2019-05-17T06:56:18.690Z,74.48
2019-05-17T07:01:22.095Z,74.54
2019-05-17T07:06:29.511Z,74.28
2019-05-17T07:11:32.331Z,73.97
2019-05-17T07:16:35.737Z,73.63
2019-05-17T07:21:40.430Z,73.72
2019-05-17T07:26:44.024Z,73.69
2019-05-17T07:31:49.663Z,73.32
2019-05-17T07:36:53.078Z,72.37
2019-05-17T07:41:56.496Z,72.09
2019-05-17T07:47:00.209Z,71.78
2019-05-17T07:52:03.632Z,70.92
2019-05-17T07:57:07.036Z,70.47
2019-05-17T08:02:10.724Z,70.46
2019-05-17T08:07:14.126Z,69.41
2019-05-17T08:12:19.863Z,69.13
2019-05-17T08:17:22.727Z,68.30
2019-05-17T08:22:26.161Z,67.42
2019-05-17T08:27:29.910Z,66.76
2019-05-17T08:32:33.458Z,66.46
2019-05-17T08:37:36.874Z,66.76
2019-05-17T08:42:40.783Z,65.30
2019-05-17T08:47:44.458Z,64.58
2019-05-17T08:52:49.463Z,62.99
2019-05-17T08:57:53.047Z,61.74
2019-05-17T09:02:56.449Z,61.86
2019-05-17T09:08:00.145Z,60.95
2019-05-17T09:13:03.513Z,59.38
2019-05-17T09:18:06.989Z,58.32
2019-05-17T09:23:10.380Z,57.00
2019-05-17T09:28:14.088Z,56.24
2019-05-17T09:33:19.249Z,55.53
2019-05-17T09:38:22.689Z,54.76
2019-05-17T09:43:26.084Z,55.50
2019-05-17T09:48:30.735Z,55.42
2019-05-17T09:53:34.288Z,54.78
2019-05-17T09:58:39.667Z,53.47
2019-05-17T10:03:43.247Z,52.77
2019-05-17T10:08:46.664Z,52.14
2019-05-17T10:13:50.131Z,52.72
2019-05-17T10:18:53.538Z,51.40
2019-05-17T10:23:57.006Z,51.73
2019-05-17T10:29:00.421Z,50.92
2019-05-17T10:34:03.986Z,50.25
2019-05-17T10:39:09.942Z,49.36
2019-05-17T10:44:13.496Z,47.99
2019-05-17T10:49:16.960Z,48.65
2019-05-17T10:54:20.739Z,47.00
2019-05-17T10:59:24.226Z,48.56
2019-05-17T11:04:27.617Z,46.97
2019-05-17T11:09:31.469Z,47.61
2019-05-17T11:14:48.949Z,48.24
2019-05-17T11:19:40.104Z,46.42
2019-05-17T11:24:43.600Z,47.51
2019-05-17T11:29:47.021Z,48.28
2019-05-17T11:34:50.416Z,47.75
2019-05-17T11:39:53.814Z,45.86
2019-05-17T11:44:57.260Z,46.34
2019-05-17T11:50:00.649Z,44.89
2019-05-17T11:55:05.984Z,45.73
2019-05-17T12:00:10.319Z,46.84
2019-05-17T12:05:14.458Z,45.74
2019-05-17T12:10:18.157Z,46.97
2019-05-17T12:15:21.487Z,43.66
2019-05-17T12:20:25.323Z,44.54
2019-05-17T12:25:29.043Z,44.23
2019-05-17T12:30:32.609Z,42.60
2019-05-17T12:35:36.115Z,42.53
2019-05-17T12:40:39.516Z,41.96
2019-05-17T12:45:42.937Z,41.06
2019-05-17T12:50:46.356Z,41.32
2019-05-17T12:55:49.767Z,41.12
2019-05-17T13:00:53.191Z,39.59
2019-05-17T13:05:56.585Z,39.80
2019-05-17T13:10:59.986Z,38.26
2019-05-17T13:16:16.813Z,40.46
2019-05-17T13:21:08.501Z,39.80
2019-05-17T13:26:11.917Z,39.05
2019-05-17T13:31:15.582Z,39.58
2019-05-17T13:36:18.980Z,38.49
2019-05-17T13:41:22.447Z,39.35
2019-05-17T13:46:33.074Z,37.93
2019-05-17T13:51:31.250Z,38.25
2019-05-17T13:56:35.043Z,37.98
2019-05-17T14:01:38.522Z,36.74
2019-05-17T14:06:41.900Z,36.61
2019-05-17T14:11:45.299Z,37.05
2019-05-17T14:16:48.689Z,36.58
2019-05-17T14:21:52.440Z,36.56
2019-05-17T14:26:55.932Z,33.38
2019-05-17T14:31:59.327Z,35.58
2019-05-17T14:37:02.742Z,34.42
2019-05-17T14:42:06.115Z,34.59
2019-05-17T14:47:09.541Z,35.35
2019-05-17T14:52:13.174Z,34.51
2019-05-17T14:57:16.571Z,35.06
2019-05-17T15:02:19.963Z,34.98
2019-05-17T15:07:23.604Z,35.12
2019-05-17T15:12:28.757Z,35.82
2019-05-17T15:17:35.001Z,35.28
2019-05-17T15:22:37.231Z,34.20
2019-05-17T15:27:40.869Z,34.94
2019-05-17T15:32:44.348Z,34.76
2019-05-17T15:37:47.721Z,34.67
2019-05-17T15:42:51.119Z,34.99
2019-05-17T15:47:54.750Z,34.40
2019-05-17T15:52:58.145Z,35.68
2019-05-17T15:58:01.559Z,35.64
2019-05-17T16:03:04.949Z,36.40
2019-05-17T16:08:08.577Z,35.36
2019-05-17T16:13:11.986Z,37.29
2019-05-17T16:18:15.383Z,36.22
2019-05-17T16:23:18.772Z,36.31
2019-05-17T16:28:22.162Z,37.00
2019-05-17T16:33:25.796Z,36.65
2019-05-17T16:38:29.214Z,36.90
2019-05-17T16:43:32.844Z,36.76
2019-05-17T16:48:36.237Z,37.44
2019-05-17T16:53:39.634Z,37.91
2019-05-17T16:58:43.031Z,38.36
2019-05-17T17:03:46.680Z,38.13
2019-05-17T17:08:50.088Z,39.29
2019-05-17T17:13:53.491Z,39.20
2019-05-17T17:18:57.146Z,39.97
2019-05-17T17:24:00.793Z,40.48
2019-05-17T17:29:04.704Z,40.66
2019-05-17T17:34:08.339Z,40.93
2019-05-17T17:39:11.749Z,41.24
2019-05-17T17:44:15.400Z,41.72
2019-05-17T17:49:18.802Z,42.15
2019-05-17T17:54:22.194Z,42.44
2019-05-17T17:59:25.591Z,42.52
2019-05-17T18:04:29.085Z,42.66
2019-05-17T18:09:32.502Z,42.88
2019-05-17T18:14:35.914Z,43.32
2019-05-17T18:19:39.325Z,44.30
2019-05-17T18:24:42.720Z,45.02
2019-05-17T18:29:46.171Z,45.48
2019-05-17T18:34:49.581Z,45.96
2019-05-17T18:39:52.977Z,46.88
2019-05-17T18:44:56.403Z,48.26
2019-05-17T18:49:59.798Z,49.81
2019-05-17T18:55:04.353Z,50.81
2019-05-17T19:00:08.897Z,51.04
2019-05-17T19:05:12.966Z,51.32
2019-05-17T19:10:16.577Z,52.20
2019-05-17T19:15:20.109Z,52.17
2019-05-17T19:20:23.576Z,52.48
2019-05-17T19:25:26.999Z,53.24
2019-05-17T19:30:30.460Z,53.79
2019-05-17T19:35:34.271Z,54.46
2019-05-17T19:40:37.627Z,54.82
2019-05-17T19:45:41.017Z,54.83
2019-05-17T19:50:44.416Z,55.11
2019-05-17T19:55:47.846Z,55.47
2019-05-17T20:00:51.439Z,56.02
2019-05-17T20:05:54.829Z,56.00
2019-05-17T20:10:58.467Z,56.09
2019-05-17T20:16:01.859Z,56.34
2019-05-17T20:21:05.270Z,56.57
2019-05-17T20:26:08.666Z,57.13
2019-05-17T20:31:12.298Z,57.60
2019-05-17T20:36:15.691Z,57.60
2019-05-17T20:41:19.096Z,57.55
2019-05-17T20:46:22.725Z,57.74
2019-05-17T20:51:26.189Z,57.73
2019-05-17T20:56:32.869Z,57.91
2019-05-17T21:01:34.704Z,57.99
2019-05-17T21:06:38.122Z,58.83
2019-05-17T21:11:41.514Z,58.83
2019-05-17T21:16:44.908Z,59.07
2019-05-17T21:21:48.381Z,59.11
2019-05-17T21:26:51.785Z,59.30
2019-05-17T21:31:55.210Z,60.11
2019-05-17T21:36:58.597Z,60.11
2019-05-17T21:42:01.998Z,60.27
2019-05-17T21:47:05.721Z,60.27
2019-05-17T21:52:09.119Z,60.33
2019-05-17T21:57:12.585Z,60.20
2019-05-17T22:02:15.985Z,60.42
2019-05-17T22:07:19.381Z,60.42
2019-05-17T22:12:22.777Z,60.16
2019-05-17T22:17:26.168Z,60.18
2019-05-17T22:22:29.556Z,60.10
2019-05-17T22:27:32.964Z,60.10
2019-05-17T22:32:36.656Z,59.97
2019-05-17T22:37:40.045Z,60.14
2019-05-17T22:42:43.520Z,59.58
2019-05-17T22:47:46.910Z,59.75
2019-05-17T22:52:50.302Z,60.23
2019-05-17T22:57:53.703Z,59.75
2019-05-17T23:02:57.169Z,60.59
2019-05-17T23:08:00.570Z,61.20
2019-05-17T23:13:03.959Z,61.34
2019-05-17T23:18:07.362Z,60.62
2019-05-17T23:23:10.759Z,61.10
2019-05-17T23:28:14.414Z,61.86
2019-05-17T23:33:17.827Z,62.30
2019-05-17T23:38:21.275Z,62.56
2019-05-17T23:43:24.671Z,62.69
2019-05-17T23:48:28.072Z,62.59
2019-05-17T23:53:31.464Z,61.77
2019-05-17T23:58:34.935Z,62.26
